Terminal Aerodrome Forecast
Issued by NWS

Home | Current Version | Previous Version | Graphics & Text | Print | Product List | Glossary On
Versions: 1 2 3 4 5 6 7 8 9 10 11 12 13 14 15
000
FTUS43 KGRB 301100
TAFATW
TAF
KATW 301122Z 3012/0112 34006KT P6SM SCT030 BKN070
      TEMPO 3012/3015 BKN028
     FM301500 02010G20KT P6SM SCT030 BKN070
     FM302200 36007KT P6SM FEW070
     FM010400 VRB03KT P6SM SKC=

USA.gov is the U.S. government's official web portal to all federal, state and local government web resources and services.